Time;durP1;ratioP1;P1;durP2;ratioP2;P2;SDS_P1;SDS_P2;PMS_P1;PMS_P2;Temp;Humidity;BMP_temperature;BMP_pressure;BME280_temperature;BME280_humidity;BME280_pressure;Samples;Min_cycle;Max_cycle;Signal;HPM_P1;HPM_P2
2022/05/11 00:00:57;;;;;;;7.13;3.03;;;19.00;99.90;;;;;;4956561;28;20114;-55
2022/05/11 00:03:22;;;;;;;7.95;2.55;;;19.00;99.90;;;;;;4958858;28;20027;-53
2022/05/11 00:05:48;;;;;;;5.25;3.15;;;19.00;99.90;;;;;;4950123;28;20464;-56
2022/05/11 00:08:13;;;;;;;3.80;2.05;;;18.80;99.90;;;;;;4956081;28;20027;-57
2022/05/11 00:10:39;;;;;;;6.28;2.97;;;18.70;99.90;;;;;;4952689;28;20074;-56
2022/05/11 00:13:05;;;;;;;6.97;2.38;;;18.60;99.90;;;;;;4971858;28;20039;-58
2022/05/11 00:15:31;;;;;;;7.53;2.72;;;18.40;99.90;;;;;;4973012;28;20028;-56
2022/05/11 00:17:57;;;;;;;8.00;2.58;;;18.20;99.90;;;;;;4973318;28;20039;-56
2022/05/11 00:20:23;;;;;;;7.93;3.00;;;18.20;99.90;;;;;;4961941;28;20028;-56
2022/05/11 00:22:54;;;;;;;4.40;2.53;;;18.00;99.90;;;;;;4975659;28;20027;-57
2022/05/11 00:25:20;;;;;;;3.85;2.53;;;17.90;99.90;;;;;;4968844;28;20590;-59
2022/05/11 00:27:45;;;;;;;7.13;2.45;;;17.90;99.90;;;;;;4989207;28;20138;-58
2022/05/11 00:30:11;;;;;;;9.23;3.40;;;17.80;99.90;;;;;;4958583;28;20031;-57
2022/05/11 00:32:37;;;;;;;4.88;2.17;;;17.70;99.90;;;;;;4957979;28;20027;-57
2022/05/11 00:35:04;;;;;;;4.80;2.75;;;17.60;99.90;;;;;;4951871;28;20435;-54
2022/05/11 00:37:30;;;;;;;8.60;2.70;;;17.50;99.90;;;;;;4970600;28;20057;-56
2022/05/11 00:39:57;;;;;;;4.32;2.40;;;17.40;99.90;;;;;;4981181;28;20033;-55
2022/05/11 00:42:22;;;;;;;10.27;3.05;;;17.40;99.90;;;;;;4952753;28;20066;-57
2022/05/11 00:44:48;;;;;;;5.03;2.60;;;17.30;99.90;;;;;;4961649;28;20454;-56
2022/05/11 00:47:24;;;;;;;8.15;3.20;;;17.10;99.90;;;;;;4952469;28;20142;-56
2022/05/11 00:49:55;;;;;;;11.90;3.55;;;17.10;99.90;;;;;;4948533;28;20035;-59
2022/05/11 00:52:47;;;;;;;7.50;2.67;;;17.10;99.90;;;;;;4949197;28;20035;-59
2022/05/11 00:55:24;;;;;;;8.23;2.45;;;17.00;99.90;;;;;;4956285;28;20101;-56
2022/05/11 00:58:01;;;;;;;8.52;2.92;;;17.00;99.90;;;;;;4948476;28;20400;-57
2022/05/11 01:00:28;;;;;;;4.20;2.45;;;17.00;99.90;;;;;;4956976;28;20028;-59
2022/05/11 01:03:07;;;;;;;7.05;2.47;;;17.00;99.90;;;;;;4952605;28;20429;-59
2022/05/11 01:05:33;;;;;;;5.20;3.00;;;16.90;99.90;;;;;;4966960;28;20483;-56
2022/05/11 01:07:59;;;;;;;5.78;2.28;;;16.80;99.90;;;;;;4954867;28;20035;-57
2022/05/11 01:10:27;;;;;;;4.18;2.50;;;16.80;99.90;;;;;;4951365;28;20042;-59
2022/05/11 01:12:57;;;;;;;5.32;2.75;;;16.80;99.90;;;;;;4949538;28;20053;-57
2022/05/11 01:15:24;;;;;;;5.32;2.38;;;16.70;99.90;;;;;;4956370;28;20055;-57
2022/05/11 01:17:50;;;;;;;8.05;3.67;;;16.70;99.90;;;;;;4950730;28;20461;-55
2022/05/11 01:20:19;;;;;;;6.03;2.50;;;16.60;99.90;;;;;;4954946;28;20063;-57
2022/05/11 01:22:52;;;;;;;5.07;3.08;;;16.60;99.90;;;;;;4950658;28;20027;-56
2022/05/11 01:25:18;;;;;;;13.05;2.30;;;16.60;99.90;;;;;;4960490;28;20032;-57
2022/05/11 01:27:46;;;;;;;6.05;3.25;;;16.60;99.90;;;;;;4953356;28;20030;-57
2022/05/11 01:30:19;;;;;;;4.47;2.83;;;16.60;99.90;;;;;;4956415;28;20028;-57
2022/05/11 01:32:52;;;;;;;6.88;2.50;;;16.60;99.90;;;;;;4949706;28;20460;-57
2022/05/11 01:35:36;;;;;;;6.30;2.50;;;16.60;99.90;;;;;;4965489;28;20485;-56
2022/05/11 01:38:04;;;;;;;5.57;2.38;;;16.60;99.90;;;;;;4954271;28;20046;-58
2022/05/11 01:40:30;;;;;;;6.97;2.88;;;16.50;99.90;;;;;;4963894;28;20029;-57
2022/05/11 01:42:55;;;;;;;6.22;2.70;;;16.50;99.90;;;;;;4954437;28;20045;-57
2022/05/11 01:45:21;;;;;;;7.63;2.17;;;16.50;99.90;;;;;;4950829;28;20072;-58
2022/05/11 01:47:47;;;;;;;5.65;2.47;;;16.50;99.90;;;;;;4957951;28;20061;-53
2022/05/11 01:50:12;;;;;;;6.90;2.90;;;16.40;99.90;;;;;;4958953;28;20027;-56
2022/05/11 01:52:38;;;;;;;7.63;3.17;;;16.40;99.90;;;;;;4952197;28;20304;-57
2022/05/11 01:55:04;;;;;;;11.45;2.28;;;16.40;99.90;;;;;;4962432;28;20038;-55
2022/05/11 01:57:30;;;;;;;7.63;2.42;;;16.30;99.90;;;;;;4950611;28;20031;-55
2022/05/11 01:59:55;;;;;;;6.78;2.75;;;16.20;99.90;;;;;;4950188;28;20105;-58
2022/05/11 02:02:21;;;;;;;6.03;2.50;;;16.20;99.90;;;;;;4954770;28;20038;-55
2022/05/11 02:10:15;;;;;;;3.65;2.17;;;16.20;99.90;;;;;;4956487;28;20615;-55
2022/05/11 02:12:41;;;;;;;5.97;2.25;;;16.20;99.90;;;;;;4951746;28;20113;-56
2022/05/11 02:15:08;;;;;;;9.75;2.80;;;16.10;99.90;;;;;;4947475;28;20110;-57
2022/05/11 02:17:34;;;;;;;5.47;2.70;;;16.10;99.90;;;;;;4960433;28;20035;-54
2022/05/11 02:20:00;;;;;;;3.28;2.20;;;16.00;99.90;;;;;;4947802;28;20027;-58
2022/05/11 02:22:25;;;;;;;4.80;2.55;;;15.90;99.90;;;;;;4954175;28;20046;-52
2022/05/11 02:24:51;;;;;;;4.82;2.38;;;15.90;99.90;;;;;;4955334;28;20034;-55
2022/05/11 02:27:17;;;;;;;5.70;2.40;;;15.80;99.90;;;;;;4948697;28;20031;-55
2022/05/11 02:29:42;;;;;;;5.65;2.65;;;15.80;99.90;;;;;;4946715;28;20023;-56
2022/05/11 02:32:08;;;;;;;8.07;2.75;;;15.80;99.90;;;;;;4956338;28;20059;-55
2022/05/11 02:37:18;;;;;;;4.97;3.05;;;15.80;99.90;;;;;;4951803;28;20043;-58
2022/05/11 02:39:45;;;;;;;4.97;2.90;;;15.70;99.90;;;;;;4950790;28;20035;-55
2022/05/11 02:42:11;;;;;;;7.32;3.33;;;15.70;99.90;;;;;;4946824;28;20038;-59
2022/05/11 02:44:37;;;;;;;4.22;2.58;;;15.70;99.90;;;;;;4958023;28;20390;-58
2022/05/11 02:47:03;;;;;;;9.32;3.20;;;15.70;99.90;;;;;;4958145;28;20102;-56
2022/05/11 02:49:28;;;;;;;6.93;2.67;;;15.60;99.90;;;;;;4952685;28;20117;-58
2022/05/11 02:51:54;;;;;;;5.30;3.10;;;15.70;99.90;;;;;;4952175;28;20063;-59
2022/05/11 02:54:20;;;;;;;5.60;2.50;;;15.70;99.90;;;;;;4962438;28;20119;-57
2022/05/11 02:56:45;;;;;;;6.03;2.78;;;15.60;99.90;;;;;;4949461;28;20038;-54
2022/05/11 02:59:11;;;;;;;8.02;3.00;;;15.60;99.90;;;;;;4972889;22;20018;-61
2022/05/11 03:01:36;;;;;;;8.07;2.58;;;15.60;99.90;;;;;;4948840;28;20056;-60
2022/05/11 03:04:02;;;;;;;6.90;3.55;;;15.50;99.90;;;;;;4954722;28;20039;-61
2022/05/11 03:06:28;;;;;;;6.85;3.15;;;15.50;99.90;;;;;;4955810;28;20113;-62
2022/05/11 03:08:54;;;;;;;6.82;3.03;;;15.50;99.90;;;;;;4949407;28;20027;-60
2022/05/11 03:11:19;;;;;;;10.40;3.30;;;15.50;99.90;;;;;;4947928;28;20510;-62
2022/05/11 03:13:45;;;;;;;8.00;3.10;;;15.40;99.90;;;;;;4955883;28;20511;-59
2022/05/11 03:16:10;;;;;;;9.32;3.45;;;15.30;99.90;;;;;;4949352;28;20024;-60
2022/05/11 03:18:36;;;;;;;5.68;3.10;;;15.30;99.90;;;;;;4956111;28;20388;-62
2022/05/11 03:21:01;;;;;;;8.50;3.45;;;15.20;99.90;;;;;;4951070;28;20493;-62
2022/05/11 03:23:27;;;;;;;8.50;3.67;;;15.10;99.90;;;;;;4953391;28;20114;-62
2022/05/11 03:25:54;;;;;;;6.63;3.70;;;15.10;99.90;;;;;;4950115;28;20046;-62
2022/05/11 03:28:19;;;;;;;6.90;3.00;;;15.10;99.90;;;;;;4953851;28;20032;-61
2022/05/11 03:30:45;;;;;;;11.63;4.07;;;15.10;99.90;;;;;;4945938;28;20386;-61
2022/05/11 03:35:56;;;;;;;7.55;3.13;;;14.90;99.90;;;;;;4949272;28;20507;-61
2022/05/11 03:38:21;;;;;;;8.63;3.13;;;14.90;99.90;;;;;;4933775;28;20039;-61
2022/05/11 03:40:47;;;;;;;6.43;2.75;;;14.90;99.90;;;;;;4955092;28;20034;-61
2022/05/11 03:43:12;;;;;;;10.70;4.00;;;14.90;99.90;;;;;;4945924;28;20402;-61
2022/05/11 03:45:38;;;;;;;4.32;3.15;;;14.90;99.90;;;;;;4945403;28;20409;-61
2022/05/11 03:48:04;;;;;;;5.82;3.33;;;14.90;99.90;;;;;;4935333;28;20035;-59
2022/05/11 03:50:29;;;;;;;5.40;3.25;;;14.80;99.90;;;;;;4951941;28;20081;-61
2022/05/11 03:52:56;;;;;;;7.72;3.22;;;14.70;99.90;;;;;;4950427;28;20512;-61
2022/05/11 03:55:24;;;;;;;5.53;3.50;;;14.70;99.90;;;;;;4966074;28;20035;-60
2022/05/11 03:57:49;;;;;;;7.00;3.17;;;14.60;99.90;;;;;;4949493;28;20034;-60
2022/05/11 04:00:20;;;;;;;9.05;4.00;;;14.60;99.90;;;;;;4947326;28;20035;-62
2022/05/11 04:02:47;;;;;;;10.57;3.60;;;14.60;99.90;;;;;;4949098;28;20115;-61
2022/05/11 04:05:13;;;;;;;8.10;4.10;;;14.60;99.90;;;;;;4947933;28;20106;-61
2022/05/11 04:07:40;;;;;;;12.75;4.35;;;14.70;99.90;;;;;;4949244;28;20485;-62
2022/05/11 04:10:07;;;;;;;9.93;3.90;;;14.60;99.90;;;;;;4951203;28;20039;-61
2022/05/11 04:12:34;;;;;;;7.15;3.45;;;14.50;99.90;;;;;;4956811;28;20034;-60
2022/05/11 04:14:59;;;;;;;6.85;3.88;;;14.50;99.90;;;;;;4954114;28;20064;-61
2022/05/11 04:17:25;;;;;;;8.25;3.88;;;14.60;99.90;;;;;;4947776;28;20189;-61
2022/05/11 04:19:51;;;;;;;9.80;3.97;;;14.60;99.90;;;;;;4944842;28;20046;-62
2022/05/11 04:22:17;;;;;;;9.85;4.88;;;14.50;99.90;;;;;;4948476;28;20023;-61
2022/05/11 04:24:43;;;;;;;10.75;4.47;;;14.50;99.90;;;;;;4947165;28;20098;-61
2022/05/11 04:27:10;;;;;;;7.38;4.07;;;14.50;99.90;;;;;;4949915;28;20031;-61
2022/05/11 04:29:36;;;;;;;15.57;4.45;;;14.50;99.90;;;;;;4953063;28;20027;-61
2022/05/11 04:32:02;;;;;;;11.10;3.80;;;14.50;99.90;;;;;;4948410;28;20041;-61
2022/05/11 04:34:28;;;;;;;14.27;4.60;;;14.50;99.90;;;;;;4952715;28;20035;-60
2022/05/11 04:36:53;;;;;;;10.27;4.35;;;14.50;99.90;;;;;;4952772;28;20132;-61
2022/05/11 04:39:19;;;;;;;8.20;4.55;;;14.60;99.90;;;;;;4957286;28;20552;-61
2022/05/11 04:41:44;;;;;;;8.68;4.07;;;14.60;99.90;;;;;;4952623;28;20059;-59
2022/05/11 04:44:10;;;;;;;11.23;4.55;;;14.60;99.90;;;;;;4951764;28;20461;-61
2022/05/11 04:46:37;;;;;;;10.95;4.25;;;14.60;99.90;;;;;;4949421;28;20409;-60
2022/05/11 04:49:16;;;;;;;8.88;4.25;;;14.60;99.90;;;;;;4949151;28;20042;-61
2022/05/11 04:51:58;;;;;;;16.40;5.05;;;14.60;99.90;;;;;;4952079;28;20033;-60
2022/05/11 04:54:23;;;;;;;13.95;4.22;;;14.60;99.90;;;;;;4955297;28;20027;-59
2022/05/11 04:56:49;;;;;;;8.77;5.07;;;14.60;99.90;;;;;;4953803;28;20110;-61
2022/05/11 04:59:14;;;;;;;13.73;4.97;;;14.60;99.90;;;;;;4959502;28;20043;-61
2022/05/11 05:01:40;;;;;;;10.38;4.60;;;14.60;99.90;;;;;;4957563;28;20031;-61
2022/05/11 05:04:06;;;;;;;18.65;5.50;;;14.60;99.90;;;;;;4954784;28;20069;-61
2022/05/11 05:06:32;;;;;;;6.75;4.68;;;14.60;99.90;;;;;;4949090;28;20040;-61
2022/05/11 05:09:03;;;;;;;10.13;4.28;;;14.60;99.90;;;;;;4958056;28;20059;-61
2022/05/11 05:11:30;;;;;;;13.25;3.85;;;14.70;99.90;;;;;;4956273;28;20423;-61
2022/05/11 05:13:55;;;;;;;9.90;5.30;;;14.70;99.90;;;;;;4948820;28;20489;-60
2022/05/11 05:16:21;;;;;;;12.95;4.68;;;14.80;99.90;;;;;;4951632;28;20102;-59
2022/05/11 05:18:46;;;;;;;8.18;4.85;;;14.80;99.90;;;;;;4958265;28;20027;-61
2022/05/11 05:21:12;;;;;;;9.77;4.50;;;14.90;99.90;;;;;;4952406;28;20023;-61
2022/05/11 05:23:37;;;;;;;8.95;4.82;;;14.90;99.90;;;;;;4950352;28;20027;-61
2022/05/11 05:26:03;;;;;;;11.60;5.40;;;15.00;99.90;;;;;;4956863;28;20077;-62
2022/05/11 05:31:17;;;;;;;8.40;4.70;;;15.10;99.90;;;;;;4948932;28;20134;-61
2022/05/11 05:33:43;;;;;;;9.57;5.15;;;15.20;99.90;;;;;;4954953;28;20035;-62
2022/05/11 05:36:10;;;;;;;11.07;5.75;;;15.30;99.90;;;;;;4951861;28;20609;-62
2022/05/11 05:38:38;;;;;;;11.07;5.32;;;15.40;99.90;;;;;;4958235;28;20098;-59
2022/05/11 05:41:05;;;;;;;7.50;4.80;;;15.40;99.90;;;;;;4950757;28;20023;-62
2022/05/11 05:43:31;;;;;;;18.65;7.00;;;15.50;99.90;;;;;;4951786;28;20027;-62
2022/05/11 05:45:56;;;;;;;9.07;5.82;;;15.70;99.90;;;;;;4955432;28;20035;-62
2022/05/11 05:48:23;;;;;;;12.13;5.63;;;15.80;99.90;;;;;;4989381;28;20023;-61
2022/05/11 05:50:49;;;;;;;10.13;5.68;;;15.90;99.90;;;;;;4970832;28;20028;-62
2022/05/11 05:53:19;;;;;;;10.07;5.15;;;16.00;99.90;;;;;;4951304;28;20082;-61
2022/05/11 05:55:49;;;;;;;13.45;5.45;;;16.20;99.90;;;;;;4951576;29;20028;-62
2022/05/11 05:58:18;;;;;;;16.15;6.03;;;16.20;99.90;;;;;;4951705;28;20024;-62
2022/05/11 06:00:45;;;;;;;10.63;5.68;;;16.30;99.90;;;;;;4951365;28;20114;-62
2022/05/11 06:03:14;;;;;;;7.18;4.90;;;16.40;99.90;;;;;;4951331;28;20101;-62
2022/05/11 06:05:39;;;;;;;9.23;4.82;;;16.50;99.90;;;;;;4951536;29;20116;-62
2022/05/11 06:08:07;;;;;;;10.45;4.57;;;16.60;99.90;;;;;;4951529;29;20075;-62
2022/05/11 06:10:35;;;;;;;11.88;5.88;;;16.70;99.90;;;;;;4951281;28;20030;-62
2022/05/11 06:13:01;;;;;;;8.63;4.55;;;16.80;99.90;;;;;;4951003;28;20027;-62
2022/05/11 06:15:26;;;;;;;7.57;4.90;;;16.90;99.90;;;;;;4951785;28;20031;-62
2022/05/11 06:17:52;;;;;;;8.38;5.65;;;17.00;99.90;;;;;;4953577;28;20460;-62
2022/05/11 06:20:18;;;;;;;10.48;5.15;;;17.20;99.90;;;;;;4951357;29;20844;-63
2022/05/11 06:22:44;;;;;;;9.55;5.00;;;17.30;99.90;;;;;;4951389;29;20031;-62
2022/05/11 06:25:09;;;;;;;7.90;5.55;;;17.50;99.90;;;;;;4951386;29;20031;-63
2022/05/11 06:27:35;;;;;;;9.45;5.47;;;17.70;99.90;;;;;;4951451;28;20114;-62
2022/05/11 06:30:01;;;;;;;11.15;5.07;;;17.80;99.90;;;;;;4950957;29;20497;-62
2022/05/11 06:32:27;;;;;;;8.63;4.40;;;17.90;99.90;;;;;;4950760;28;20142;-63
2022/05/11 06:34:54;;;;;;;10.25;5.07;;;18.00;99.90;;;;;;4950948;29;20020;-62
2022/05/11 06:37:21;;;;;;;6.40;4.50;;;18.20;99.90;;;;;;4951051;28;20073;-62
2022/05/11 06:39:48;;;;;;;10.10;5.28;;;18.30;99.90;;;;;;4950862;28;20019;-63
2022/05/11 06:42:14;;;;;;;11.07;4.70;;;18.40;99.90;;;;;;4950886;28;20023;-63
2022/05/11 06:44:40;;;;;;;9.73;4.30;;;18.50;99.90;;;;;;4950571;29;20352;-63
2022/05/11 06:47:06;;;;;;;10.13;4.05;;;18.60;99.90;;;;;;4950850;29;20100;-62
2022/05/11 06:49:32;;;;;;;6.95;4.03;;;18.70;99.90;;;;;;4950526;28;20028;-62
2022/05/11 06:51:58;;;;;;;11.15;3.70;;;18.80;99.90;;;;;;4950543;29;20023;-62
2022/05/11 06:59:57;;;;;;;7.32;3.63;;;19.20;99.90;;;;;;4946549;28;20142;-62
2022/05/11 07:02:24;;;;;;;10.27;3.75;;;19.20;99.90;;;;;;4950069;28;20031;-63
2022/05/11 07:04:50;;;;;;;5.25;2.95;;;19.30;99.90;;;;;;4950363;29;20032;-63
2022/05/11 07:07:17;;;;;;;9.48;3.38;;;19.40;99.90;;;;;;4949968;29;20027;-63
2022/05/11 07:09:43;;;;;;;5.50;3.67;;;19.50;99.90;;;;;;4950179;29;20053;-63
2022/05/11 07:12:17;;;;;;;6.40;3.72;;;19.50;99.90;;;;;;4950616;29;20560;-61
2022/05/11 07:14:48;;;;;;;6.88;3.50;;;19.70;99.90;;;;;;4950428;29;20473;-62
2022/05/11 07:17:27;;;;;;;7.30;3.63;;;19.80;99.90;;;;;;4950471;29;20580;-62
2022/05/11 07:19:54;;;;;;;8.48;3.95;;;19.80;99.90;;;;;;4950202;29;20439;-62
2022/05/11 07:22:20;;;;;;;10.10;3.83;;;19.90;99.90;;;;;;4950019;28;20027;-62
2022/05/11 07:24:46;;;;;;;9.32;3.88;;;20.00;99.90;;;;;;4950296;29;20034;-62
2022/05/11 07:27:11;;;;;;;4.97;3.92;;;20.10;99.90;;;;;;4950331;29;20027;-62
2022/05/11 07:29:37;;;;;;;10.70;3.80;;;20.30;99.90;;;;;;4950024;29;20067;-62
2022/05/11 07:32:03;;;;;;;6.05;3.60;;;20.30;99.90;;;;;;4950332;29;20027;-63
2022/05/11 07:34:28;;;;;;;6.00;3.65;;;20.40;99.90;;;;;;4950456;28;20511;-59
2022/05/11 07:36:54;;;;;;;8.32;4.30;;;20.40;99.90;;;;;;4952217;28;20026;-63
2022/05/11 07:39:22;;;;;;;9.85;3.65;;;20.50;99.90;;;;;;4950142;29;20389;-62
2022/05/11 07:41:47;;;;;;;5.93;3.63;;;20.50;99.90;;;;;;4950201;29;20024;-63
2022/05/11 07:44:15;;;;;;;5.70;3.50;;;20.50;99.90;;;;;;4944313;28;20038;-63
2022/05/11 07:46:42;;;;;;;5.88;3.90;;;20.50;99.90;;;;;;4950246;29;20034;-63
2022/05/11 07:49:07;;;;;;;7.03;3.28;;;20.60;99.90;;;;;;4949931;29;20571;-61
2022/05/11 07:51:35;;;;;;;6.97;4.00;;;20.70;99.90;;;;;;4949951;29;20122;-63
2022/05/11 07:54:00;;;;;;;9.05;3.33;;;20.80;99.90;;;;;;4949796;29;20135;-63
2022/05/11 08:01:54;;;;;;;7.32;4.00;;;20.70;99.90;;;;;;4949827;28;20420;-62
2022/05/11 08:04:20;;;;;;;5.13;3.30;;;20.80;99.90;;;;;;4952339;28;20027;-63
2022/05/11 08:06:46;;;;;;;7.38;3.47;;;20.80;99.90;;;;;;4953272;28;20497;-63
2022/05/11 08:09:13;;;;;;;6.32;3.28;;;20.90;99.90;;;;;;4953211;29;20441;-63
2022/05/11 08:11:39;;;;;;;8.23;3.15;;;20.90;99.90;;;;;;4959478;28;20469;-62
2022/05/11 08:14:04;;;;;;;5.80;3.05;;;21.00;99.90;;;;;;4952984;28;20023;-61
2022/05/11 08:16:30;;;;;;;5.82;3.40;;;21.00;99.90;;;;;;4952985;29;20145;-63
2022/05/11 08:18:56;;;;;;;4.95;2.45;;;21.00;99.90;;;;;;4953036;28;20030;-63
2022/05/11 08:21:22;;;;;;;8.95;2.80;;;21.00;99.90;;;;;;4952867;29;20032;-63
2022/05/11 08:23:49;;;;;;;4.28;3.10;;;21.00;99.90;;;;;;4952934;28;20090;-63
2022/05/11 08:26:15;;;;;;;6.03;2.47;;;21.00;99.90;;;;;;4952943;29;20031;-63
2022/05/11 08:28:40;;;;;;;7.30;2.70;;;21.10;99.90;;;;;;4953176;28;20040;-63
2022/05/11 08:33:50;;;;;;;5.82;2.70;;;21.20;99.90;;;;;;4952600;29;20081;-63
2022/05/11 08:36:19;;;;;;;6.90;3.17;;;21.30;99.90;;;;;;4952880;29;20082;-63
2022/05/11 08:38:48;;;;;;;9.25;3.08;;;21.40;99.90;;;;;;4952786;28;20038;-61
2022/05/11 08:41:32;;;;;;;5.60;3.60;;;21.50;99.90;;;;;;4952770;28;20030;-63
2022/05/11 08:44:04;;;;;;;22.17;3.35;;;21.50;99.90;;;;;;4952555;29;20031;-63
2022/05/11 08:46:43;;;;;;;7.40;3.17;;;21.50;99.90;;;;;;4952673;28;20110;-62
2022/05/11 08:49:21;;;;;;;6.57;3.60;;;21.50;99.90;;;;;;4952505;28;20456;-62
2022/05/11 08:52:04;;;;;;;5.25;3.45;;;21.60;99.90;;;;;;4952026;28;20039;-63
2022/05/11 08:54:47;;;;;;;11.65;4.07;;;21.70;99.90;;;;;;4952398;28;20023;-62
2022/05/11 08:57:17;;;;;;;6.05;3.35;;;21.80;99.90;;;;;;4952532;28;20049;-63
2022/05/11 09:02:26;;;;;;;11.98;3.78;;;21.90;99.90;;;;;;4955148;22;20078;-64
2022/05/11 09:04:56;;;;;;;8.32;3.70;;;22.00;99.90;;;;;;4946671;28;20795;-64
2022/05/11 09:07:22;;;;;;;6.57;2.97;;;21.90;99.90;;;;;;4932448;29;20032;-67
2022/05/11 09:09:51;;;;;;;5.30;3.63;;;22.00;99.90;;;;;;4932801;28;20042;-65
2022/05/11 09:12:17;;;;;;;8.85;3.15;;;22.10;99.90;;;;;;4932273;29;20078;-65
2022/05/11 09:14:56;;;;;;;8.25;3.88;;;22.20;99.90;;;;;;4931285;29;20551;-64
2022/05/11 09:17:26;;;;;;;6.40;2.97;;;22.30;99.90;;;;;;4932457;29;20145;-64
2022/05/11 09:20:02;;;;;;;6.35;3.55;;;22.40;99.90;;;;;;4933798;29;20028;-64
2022/05/11 09:22:29;;;;;;;7.10;3.60;;;22.40;99.90;;;;;;4933962;29;20431;-65
2022/05/11 09:25:01;;;;;;;5.85;3.15;;;22.60;99.90;;;;;;4933652;29;20024;-64
2022/05/11 09:27:28;;;;;;;7.72;3.70;;;22.80;99.90;;;;;;4933777;28;20024;-65
2022/05/11 09:30:03;;;;;;;5.97;3.70;;;22.90;99.90;;;;;;4933414;29;20059;-64
2022/05/11 09:32:35;;;;;;;7.43;4.20;;;22.80;99.90;;;;;;4939748;29;20039;-64
2022/05/11 09:35:21;;;;;;;7.07;3.83;;;23.00;99.90;;;;;;4946077;29;20028;-65
2022/05/11 09:38:01;;;;;;;5.57;3.58;;;23.00;99.90;;;;;;4948060;29;20066;-66
2022/05/11 09:40:29;;;;;;;9.05;3.60;;;23.00;99.90;;;;;;4951944;28;20478;-64
2022/05/11 09:43:00;;;;;;;6.07;3.35;;;23.00;99.90;;;;;;4933213;29;20482;-66
2022/05/11 09:45:47;;;;;;;9.10;4.28;;;23.30;99.90;;;;;;4933374;29;20028;-65
2022/05/11 09:48:21;;;;;;;7.22;3.78;;;23.40;99.90;;;;;;5028449;28;20081;-64
2022/05/11 09:50:53;;;;;;;6.25;3.63;;;23.50;99.90;;;;;;4951555;29;20107;-65
2022/05/11 09:53:34;;;;;;;7.13;3.95;;;23.60;99.90;;;;;;4951661;28;20038;-63
2022/05/11 09:56:17;;;;;;;9.05;3.90;;;23.50;99.90;;;;;;4951573;29;20486;-64
2022/05/11 09:58:44;;;;;;;6.80;3.65;;;23.60;99.90;;;;;;4951967;28;20440;-64
2022/05/11 10:01:22;;;;;;;12.15;4.60;;;23.80;99.90;;;;;;4951466;28;20055;-65
2022/05/11 10:03:54;;;;;;;5.35;4.00;;;24.00;99.90;;;;;;4952119;29;20055;-64
2022/05/11 10:06:21;;;;;;;9.77;4.47;;;24.10;99.90;;;;;;4948981;28;20544;-64
2022/05/11 10:08:48;;;;;;;22.70;4.63;;;24.40;99.90;;;;;;4933226;29;20116;-64
2022/05/11 10:11:40;;;;;;;6.65;3.63;;;24.50;99.90;;;;;;4933107;29;20028;-64
2022/05/11 10:23:10;;;;;;;5.13;3.20;;;24.90;99.90;;;;;;4933034;29;20154;-64
2022/05/11 10:25:41;;;;;;;5.65;3.50;;;25.00;99.90;;;;;;4945972;29;20031;-62
2022/05/11 10:28:31;;;;;;;17.27;5.78;;;25.00;99.90;;;;;;4951256;28;20031;-62
2022/05/11 10:31:02;;;;;;;8.65;3.60;;;25.10;99.90;;;;;;4950898;29;20034;-63
2022/05/11 10:33:46;;;;;;;4.15;2.90;;;25.40;99.90;;;;;;4950707;29;20031;-64
2022/05/11 10:36:12;;;;;;;9.15;3.60;;;25.60;99.90;;;;;;4951028;29;20045;-64
2022/05/11 10:39:01;;;;;;;10.60;3.83;;;25.20;99.90;;;;;;4951390;28;20545;-63
2022/05/11 10:41:33;;;;;;;7.90;3.05;;;24.90;99.90;;;;;;4950804;29;20031;-63
2022/05/11 10:44:05;;;;;;;8.40;3.17;;;25.40;99.90;;;;;;4950565;29;20488;-63
2022/05/11 10:46:35;;;;;;;6.03;3.03;;;25.60;99.90;;;;;;4950862;29;20035;-63
2022/05/11 10:49:22;;;;;;;11.50;3.35;;;25.80;99.90;;;;;;4951039;29;20031;-64
2022/05/11 10:52:00;;;;;;;7.97;3.72;;;25.80;99.90;;;;;;4950199;29;20023;-65
2022/05/11 10:54:29;;;;;;;10.02;3.38;;;25.70;99.90;;;;;;4945250;29;20027;-64
2022/05/11 10:57:09;;;;;;;9.57;4.55;;;25.80;99.90;;;;;;4950615;29;20036;-64
2022/05/11 10:59:56;;;;;;;8.65;4.07;;;26.10;99.90;;;;;;4950500;29;20033;-63
2022/05/11 11:02:30;;;;;;;7.78;3.35;;;26.30;99.90;;;;;;4950464;29;20027;-64
2022/05/11 11:05:20;;;;;;;7.55;3.35;;;26.60;99.90;;;;;;4950445;28;20389;-64
2022/05/11 11:07:59;;;;;;;10.57;3.53;;;26.30;99.90;;;;;;4950561;29;20035;-64
2022/05/11 11:10:28;;;;;;;4.40;2.90;;;26.60;99.90;;;;;;4946191;28;20043;-63
2022/05/11 11:13:34;;;;;;;7.38;3.75;;;26.50;99.90;;;;;;4931926;29;20608;-63
2022/05/11 11:16:02;;;;;;;6.25;3.30;;;26.50;99.90;;;;;;4946511;28;20477;-64
2022/05/11 11:18:34;;;;;;;6.50;3.20;;;26.50;99.90;;;;;;4950340;29;20023;-63
2022/05/11 11:21:02;;;;;;;7.05;2.80;;;26.50;99.90;;;;;;4950128;29;20029;-64
2022/05/11 11:23:34;;;;;;;9.77;2.85;;;26.80;99.90;;;;;;4950044;29;20401;-64
2022/05/11 11:26:33;;;;;;;7.55;3.05;;;27.10;99.90;;;;;;4950192;29;20039;-64
2022/05/11 11:28:58;;;;;;;8.40;4.32;;;26.80;99.90;;;;;;4950207;28;20078;-64
2022/05/11 11:31:26;;;;;;;10.45;3.33;;;26.60;99.90;;;;;;4949980;29;20051;-63
2022/05/11 11:33:54;;;;;;;8.90;3.28;;;26.60;99.90;;;;;;4950241;29;20058;-64
2022/05/11 11:36:30;;;;;;;4.53;3.15;;;26.80;99.90;;;;;;4950002;28;20023;-64
2022/05/11 11:39:04;;;;;;;9.10;2.75;;;26.70;99.90;;;;;;4950001;29;20063;-64
2022/05/11 11:41:51;;;;;;;8.15;3.05;;;26.80;99.90;;;;;;4951216;28;20046;-65
2022/05/11 11:44:35;;;;;;;6.82;3.13;;;26.90;99.90;;;;;;4947811;28;20130;-64
2022/05/11 11:47:00;;;;;;;9.80;3.07;;;27.10;99.90;;;;;;4932093;29;20034;-64
2022/05/11 11:49:27;;;;;;;7.68;3.35;;;27.00;99.90;;;;;;4931651;29;20977;-63
2022/05/11 11:51:58;;;;;;;3.67;2.67;;;27.00;99.90;;;;;;4931681;29;20035;-65
2022/05/11 11:54:46;;;;;;;8.02;3.10;;;27.20;99.90;;;;;;4931410;29;20107;-63
2022/05/11 11:57:20;;;;;;;8.55;3.13;;;27.40;99.90;;;;;;4944008;29;20024;-64
2022/05/11 11:59:50;;;;;;;8.07;2.95;;;27.30;99.90;;;;;;4954068;28;20026;-64
2022/05/11 12:02:28;;;;;;;9.05;3.60;;;27.70;99.90;;;;;;4931488;29;20036;-64
2022/05/11 12:05:08;;;;;;;3.28;2.33;;;28.20;99.90;;;;;;4944996;28;20021;-64
2022/05/11 12:16:46;;;;;;;6.45;3.70;;;27.60;99.90;;;;;;4944168;29;20150;-62
2022/05/11 12:19:14;;;;;;;7.05;3.03;;;27.90;99.90;;;;;;4943578;28;20036;-64
2022/05/11 12:21:42;;;;;;;5.65;2.65;;;27.80;99.90;;;;;;4938799;28;20030;-63
2022/05/11 12:24:20;;;;;;;10.07;2.95;;;27.90;99.90;;;;;;4948905;28;20389;-63
2022/05/11 12:26:55;;;;;;;7.80;2.95;;;28.30;99.90;;;;;;4933419;28;20375;-64
2022/05/11 12:32:07;;;;;;;8.25;3.05;;;28.40;99.90;;;;;;4941450;28;20543;-64
2022/05/11 12:34:42;;;;;;;5.53;2.88;;;28.60;99.90;;;;;;4945141;28;20034;-64
2022/05/11 12:37:24;;;;;;;5.32;2.80;;;28.60;99.90;;;;;;4946691;28;20473;-64
2022/05/11 12:40:02;;;;;;;5.70;2.83;;;28.50;99.90;;;;;;4959130;28;20035;-64
2022/05/11 12:42:40;;;;;;;12.13;3.78;;;28.10;99.90;;;;;;4950441;28;20368;-65
2022/05/11 12:45:09;;;;;;;5.85;3.30;;;28.60;99.90;;;;;;4941292;28;20032;-65
2022/05/11 12:47:35;;;;;;;9.27;3.22;;;29.00;99.90;;;;;;4953060;28;20047;-64
2022/05/11 12:50:01;;;;;;;8.85;2.65;;;29.10;99.90;;;;;;4949399;28;20024;-64
2022/05/11 12:52:27;;;;;;;4.50;2.65;;;29.50;99.90;;;;;;4941501;29;20035;-64
2022/05/11 12:54:59;;;;;;;4.88;2.50;;;29.50;99.90;;;;;;4943708;28;20019;-64
2022/05/11 12:57:44;;;;;;;6.03;3.17;;;29.80;99.90;;;;;;4942928;28;20032;-64
2022/05/11 13:00:30;;;;;;;7.57;2.95;;;30.00;99.90;;;;;;4935705;29;20047;-63
2022/05/11 13:02:56;;;;;;;5.57;3.25;;;29.70;99.90;;;;;;4933956;29;20028;-64
2022/05/11 13:05:23;;;;;;;3.67;3.03;;;29.90;99.90;;;;;;4942415;28;20532;-64
2022/05/11 13:08:01;;;;;;;7.22;3.08;;;28.90;99.90;;;;;;4941468;29;20050;-63
2022/05/11 13:10:36;;;;;;;8.55;2.50;;;29.20;99.90;;;;;;4936457;29;20020;-64
2022/05/11 13:13:07;;;;;;;3.97;2.70;;;29.10;99.90;;;;;;4933863;29;20520;-64
2022/05/11 13:15:41;;;;;;;7.35;2.80;;;29.50;99.90;;;;;;4939052;29;20482;-65
2022/05/11 13:18:09;;;;;;;;;;;29.40;99.90;;;;;;4942315;29;20428;-64
2022/05/11 13:20:39;;;;;;;2.88;2.47;;;29.40;99.90;;;;;;4938339;29;19918;-65
2022/05/11 13:23:39;;;;;;;6.68;3.00;;;29.30;99.90;;;;;;4944000;28;20541;-64
2022/05/11 13:26:30;;;;;;;9.02;2.80;;;28.80;99.90;;;;;;4945378;28;20087;-65
2022/05/11 13:29:09;;;;;;;5.43;2.67;;;28.80;99.90;;;;;;4943483;28;20043;-65
2022/05/11 13:31:35;;;;;;;3.95;2.13;;;29.20;99.90;;;;;;4956987;28;20062;-64
2022/05/11 13:34:02;;;;;;;2.75;1.95;;;29.30;99.90;;;;;;4954148;28;20031;-65
2022/05/11 13:36:41;;;;;;;4.15;1.98;;;29.70;99.90;;;;;;4954520;28;20058;-65
2022/05/11 13:39:09;;;;;;;3.83;1.75;;;30.10;98.60;;;;;;4945869;28;20028;-64
2022/05/11 13:41:49;;;;;;;5.55;1.88;;;30.00;98.90;;;;;;4944858;28;20058;-65
2022/05/11 13:44:36;;;;;;;2.60;1.67;;;29.80;97.20;;;;;;4955936;28;20028;-64
2022/05/11 13:50:13;;;;;;;2.45;1.70;;;29.00;96.90;;;;;;4949342;28;20064;-64
2022/05/11 13:52:50;;;;;;;3.53;1.48;;;29.60;97.10;;;;;;4940296;28;20031;-64